Time;durP1;ratioP1;P1;durP2;ratioP2;P2;SDS_P1;SDS_P2;PMS_P1;PMS_P2;Temp;Humidity;BMP_temperature;BMP_pressure;BME280_temperature;BME280_humidity;BME280_pressure;Samples;Min_cycle;Max_cycle;Signal;HPM_P1;HPM_P2
2022/03/03 00:00:11;;;;;;;44.92;29.40;;;3.40;99.90;;;;;;5039901;28;20076;-59
2022/03/03 00:02:36;;;;;;;41.83;28.20;;;3.30;99.90;;;;;;5039652;28;20049;-58
2022/03/03 00:05:04;;;;;;;43.22;29.15;;;3.30;99.90;;;;;;5039678;28;20060;-58
2022/03/03 00:07:29;;;;;;;43.53;30.10;;;3.30;99.90;;;;;;5036412;28;20045;-59
2022/03/03 00:09:55;;;;;;;43.85;29.58;;;3.30;99.90;;;;;;5037123;28;20061;-58
2022/03/03 00:12:20;;;;;;;44.63;29.52;;;3.20;99.90;;;;;;5036723;28;20041;-58
2022/03/03 00:14:46;;;;;;;44.65;29.05;;;3.30;99.90;;;;;;5052057;28;20099;-59
2022/03/03 00:17:12;;;;;;;43.80;29.63;;;3.30;99.90;;;;;;5057250;28;20464;-59
2022/03/03 00:19:38;;;;;;;45.38;30.25;;;3.40;99.90;;;;;;5056904;28;20402;-58
2022/03/03 00:22:04;;;;;;;46.00;29.80;;;3.30;99.90;;;;;;5057480;28;20033;-58
2022/03/03 00:24:29;;;;;;;45.20;31.20;;;3.20;99.90;;;;;;5044628;28;20033;-58
2022/03/03 00:26:55;;;;;;;45.00;30.17;;;3.10;99.90;;;;;;5036759;28;20485;-59
2022/03/03 00:29:21;;;;;;;43.78;29.00;;;3.00;99.90;;;;;;5036890;28;20037;-58
2022/03/03 00:31:47;;;;;;;48.17;30.73;;;3.10;99.90;;;;;;5036911;28;20367;-59
2022/03/03 00:34:13;;;;;;;44.08;29.42;;;3.00;99.90;;;;;;5012675;28;20362;-58
2022/03/03 00:36:40;;;;;;;50.00;30.27;;;3.00;99.90;;;;;;5056812;28;20125;-60
2022/03/03 00:39:05;;;;;;;46.63;31.30;;;3.00;99.90;;;;;;5038784;28;20378;-58
2022/03/03 00:41:31;;;;;;;43.25;29.20;;;3.00;99.90;;;;;;5056963;28;20036;-59
2022/03/03 00:43:57;;;;;;;44.78;31.10;;;3.00;99.90;;;;;;5048890;28;20116;-59
2022/03/03 00:46:25;;;;;;;44.85;30.55;;;3.00;99.90;;;;;;5036420;28;20121;-59
2022/03/03 00:48:51;;;;;;;48.03;32.25;;;3.00;99.90;;;;;;5036571;28;20088;-59
2022/03/03 00:51:17;;;;;;;44.53;30.77;;;3.00;99.90;;;;;;5036596;28;20473;-59
2022/03/03 00:53:43;;;;;;;45.08;31.13;;;3.00;99.90;;;;;;5041929;28;20062;-58
2022/03/03 00:56:09;;;;;;;42.40;29.83;;;2.90;99.90;;;;;;5056720;28;20041;-59
2022/03/03 00:58:34;;;;;;;43.05;31.13;;;3.00;99.90;;;;;;5056284;28;20041;-58
2022/03/03 01:01:01;;;;;;;43.90;31.08;;;3.00;99.90;;;;;;5056362;28;20370;-59
2022/03/03 01:03:27;;;;;;;45.67;30.55;;;3.00;99.90;;;;;;5052901;28;20048;-59
2022/03/03 01:05:53;;;;;;;43.88;30.48;;;2.90;99.90;;;;;;5036215;28;20099;-59
2022/03/03 01:08:19;;;;;;;44.60;30.48;;;3.00;99.90;;;;;;5035006;28;20029;-58
2022/03/03 01:10:45;;;;;;;41.00;29.33;;;3.00;99.90;;;;;;5035869;28;20049;-60
2022/03/03 01:13:10;;;;;;;46.00;31.13;;;2.80;99.90;;;;;;5036699;28;20049;-58
2022/03/03 01:15:36;;;;;;;46.65;31.55;;;2.80;99.90;;;;;;5055938;28;20123;-59
2022/03/03 01:18:02;;;;;;;43.55;30.60;;;2.70;99.90;;;;;;5038310;28;20080;-59
2022/03/03 01:20:28;;;;;;;45.05;30.55;;;2.80;99.90;;;;;;5055777;28;20120;-58
2022/03/03 01:22:55;;;;;;;43.67;30.95;;;2.80;99.90;;;;;;5056206;28;20041;-58
2022/03/03 01:25:20;;;;;;;45.95;30.63;;;2.80;99.90;;;;;;5019957;28;20037;-58
2022/03/03 01:27:46;;;;;;;44.38;30.95;;;2.70;99.90;;;;;;5035642;28;20352;-58
2022/03/03 01:30:12;;;;;;;44.08;30.90;;;2.80;99.90;;;;;;5035992;28;20485;-59
2022/03/03 01:32:38;;;;;;;43.90;30.25;;;2.80;99.90;;;;;;5018418;28;20076;-59
2022/03/03 01:35:04;;;;;;;47.97;31.17;;;2.60;99.90;;;;;;5052216;28;20045;-59
2022/03/03 01:37:30;;;;;;;43.83;30.60;;;2.50;99.90;;;;;;5055379;28;20401;-58
2022/03/03 01:39:56;;;;;;;44.25;31.48;;;2.60;99.90;;;;;;5055839;28;20041;-59
2022/03/03 01:42:21;;;;;;;45.08;30.88;;;2.50;99.90;;;;;;5055826;28;20025;-58
2022/03/03 01:44:48;;;;;;;48.50;31.38;;;2.40;99.90;;;;;;5041378;28;20427;-59
2022/03/03 01:47:32;;;;;;;44.95;30.63;;;2.30;99.90;;;;;;5035275;28;20496;-58
2022/03/03 01:49:58;;;;;;;43.30;30.52;;;2.30;99.90;;;;;;5035732;28;20103;-58
2022/03/03 01:52:24;;;;;;;45.00;30.67;;;2.30;99.90;;;;;;5017909;28;20057;-60
2022/03/03 01:54:50;;;;;;;45.83;31.50;;;2.20;99.90;;;;;;5049447;28;20524;-58
2022/03/03 01:57:20;;;;;;;45.75;32.28;;;2.10;99.90;;;;;;5055190;28;20096;-60
2022/03/03 01:59:46;;;;;;;43.53;30.65;;;2.00;99.90;;;;;;5037194;28;20091;-60
2022/03/03 02:02:12;;;;;;;45.22;30.73;;;2.00;99.90;;;;;;5055384;28;20135;-58
2022/03/03 02:04:39;;;;;;;43.25;30.42;;;2.00;99.90;;;;;;5042200;28;20062;-59
2022/03/03 02:07:10;;;;;;;46.30;31.75;;;2.00;99.90;;;;;;5035392;28;20149;-58
2022/03/03 02:09:36;;;;;;;44.97;30.85;;;2.00;99.90;;;;;;5035035;28;20041;-60
2022/03/03 02:12:03;;;;;;;43.58;30.83;;;2.10;99.90;;;;;;5035156;28;20486;-58
2022/03/03 02:14:28;;;;;;;42.33;30.27;;;2.10;99.90;;;;;;5046045;28;20495;-59
2022/03/03 02:16:54;;;;;;;43.42;30.38;;;2.20;99.90;;;;;;5037271;28;20044;-58
2022/03/03 02:19:21;;;;;;;46.78;31.10;;;2.20;99.90;;;;;;5054760;28;20045;-58
2022/03/03 02:21:48;;;;;;;46.75;31.23;;;2.10;99.90;;;;;;5037263;28;20386;-59
2022/03/03 02:24:14;;;;;;;44.90;30.30;;;2.00;99.90;;;;;;5045614;28;20045;-58
2022/03/03 02:26:40;;;;;;;43.85;30.90;;;2.00;99.90;;;;;;5034807;28;20458;-58
2022/03/03 02:29:07;;;;;;;44.05;29.65;;;2.00;99.90;;;;;;5017092;28;20049;-60
2022/03/03 02:31:33;;;;;;;46.97;30.42;;;2.00;99.90;;;;;;5034511;28;20037;-58
2022/03/03 02:33:58;;;;;;;45.80;30.83;;;2.00;99.90;;;;;;5041778;28;20095;-58
2022/03/03 02:36:29;;;;;;;41.85;29.02;;;2.00;99.90;;;;;;5054862;28;20037;-58
2022/03/03 02:39:01;;;;;;;42.10;30.05;;;2.00;99.90;;;;;;5054507;28;20048;-58
2022/03/03 02:41:27;;;;;;;43.83;29.40;;;1.90;99.90;;;;;;5037225;28;20052;-60
2022/03/03 02:43:54;;;;;;;46.75;30.95;;;1.90;99.90;;;;;;5030320;28;20451;-58
2022/03/03 02:46:19;;;;;;;44.05;30.63;;;1.80;99.90;;;;;;5016978;28;20481;-58
2022/03/03 02:48:46;;;;;;;44.17;30.17;;;1.70;99.90;;;;;;5034294;28;20041;-59
2022/03/03 02:51:12;;;;;;;44.63;30.17;;;1.60;99.90;;;;;;5034599;28;20049;-58
2022/03/03 02:53:37;;;;;;;43.20;29.98;;;1.50;99.90;;;;;;5020992;28;20074;-59
2022/03/03 02:56:05;;;;;;;38.92;27.63;;;1.50;99.90;;;;;;5054291;28;20393;-58
2022/03/03 02:58:30;;;;;;;42.78;30.02;;;1.50;99.90;;;;;;5054236;28;20151;-58
2022/03/03 03:00:56;;;;;;;42.17;29.58;;;1.50;99.90;;;;;;5054160;28;20421;-58
2022/03/03 03:03:22;;;;;;;41.97;29.23;;;1.40;99.90;;;;;;5052264;28;20108;-60
2022/03/03 03:05:48;;;;;;;44.97;29.63;;;1.40;99.90;;;;;;5033969;28;20129;-59
2022/03/03 03:08:14;;;;;;;43.05;29.75;;;1.50;99.90;;;;;;5033707;28;20069;-58
2022/03/03 03:10:40;;;;;;;41.33;29.30;;;1.50;99.90;;;;;;5034242;28;20052;-59
2022/03/03 03:13:07;;;;;;;40.97;27.08;;;1.40;99.90;;;;;;5034339;28;20064;-58
2022/03/03 03:15:34;;;;;;;41.90;28.67;;;1.40;99.90;;;;;;5017261;28;20052;-58
2022/03/03 03:18:12;;;;;;;38.13;27.63;;;1.40;99.90;;;;;;5033859;28;20060;-59
2022/03/03 03:20:39;;;;;;;42.53;29.23;;;1.30;99.90;;;;;;5034108;28;20075;-59
2022/03/03 03:23:06;;;;;;;38.17;27.27;;;1.30;99.90;;;;;;5033905;28;20038;-58
2022/03/03 03:25:32;;;;;;;41.83;28.88;;;1.30;99.90;;;;;;5034447;28;20409;-59
2022/03/03 03:27:57;;;;;;;40.70;27.70;;;1.40;99.90;;;;;;5033450;28;20041;-59
2022/03/03 03:30:23;;;;;;;40.63;26.58;;;1.30;99.90;;;;;;5034000;28;20047;-59
2022/03/03 03:32:49;;;;;;;37.28;26.17;;;1.30;99.90;;;;;;5033430;28;20042;-58
2022/03/03 03:35:14;;;;;;;40.80;27.00;;;1.30;99.90;;;;;;5033277;28;20473;-58
2022/03/03 03:37:40;;;;;;;38.88;26.67;;;1.30;99.90;;;;;;5035790;28;20128;-58
2022/03/03 03:40:07;;;;;;;40.42;28.08;;;1.30;99.90;;;;;;5053799;28;20041;-58
2022/03/03 03:42:33;;;;;;;40.00;27.50;;;1.20;99.90;;;;;;5053607;28;20485;-58
2022/03/03 03:44:59;;;;;;;39.58;26.33;;;1.20;99.90;;;;;;5038864;28;20090;-58
2022/03/03 03:47:24;;;;;;;40.28;27.65;;;1.20;99.90;;;;;;5033112;28;20033;-59
2022/03/03 03:49:50;;;;;;;40.22;26.92;;;1.20;99.90;;;;;;5033769;28;20120;-59
2022/03/03 03:52:16;;;;;;;39.55;27.00;;;1.20;99.90;;;;;;5033605;28;20100;-58
2022/03/03 03:54:41;;;;;;;38.03;25.33;;;1.30;99.90;;;;;;5045829;28;20040;-59
2022/03/03 03:57:07;;;;;;;36.08;25.45;;;1.20;99.90;;;;;;5053718;28;20385;-59
2022/03/03 03:59:32;;;;;;;37.60;26.98;;;1.30;99.90;;;;;;5053450;28;20037;-58
2022/03/03 04:01:58;;;;;;;37.05;25.83;;;1.30;99.90;;;;;;5053252;28;20366;-59
2022/03/03 04:04:24;;;;;;;39.08;26.95;;;1.30;99.90;;;;;;5043489;28;20061;-59
2022/03/03 04:06:49;;;;;;;38.72;26.50;;;1.30;99.90;;;;;;5033871;28;20033;-58
2022/03/03 04:09:15;;;;;;;35.22;24.42;;;1.30;99.90;;;;;;5033200;28;20117;-58
2022/03/03 04:11:41;;;;;;;38.58;26.75;;;1.30;99.90;;;;;;5033758;28;20045;-58
2022/03/03 04:14:06;;;;;;;37.38;26.50;;;1.20;99.90;;;;;;5040370;28;20052;-58
2022/03/03 04:16:32;;;;;;;37.25;26.20;;;1.20;99.90;;;;;;5053554;28;20041;-59
2022/03/03 04:18:58;;;;;;;34.25;25.48;;;1.20;99.90;;;;;;5053117;28;20037;-60
2022/03/03 04:21:23;;;;;;;35.72;25.73;;;1.20;99.90;;;;;;5053524;28;20037;-59
2022/03/03 04:23:49;;;;;;;36.42;26.67;;;1.20;99.90;;;;;;5030746;28;20048;-58
2022/03/03 04:26:15;;;;;;;36.65;25.95;;;1.20;99.90;;;;;;5033572;28;20117;-59
2022/03/03 04:28:41;;;;;;;37.05;24.85;;;1.10;99.90;;;;;;5033205;28;20052;-58
2022/03/03 04:31:06;;;;;;;36.30;25.88;;;1.00;99.90;;;;;;5033370;28;20049;-59
2022/03/03 04:33:32;;;;;;;35.80;25.95;;;0.90;99.90;;;;;;5035522;28;20047;-58
2022/03/03 04:35:58;;;;;;;34.75;24.85;;;1.00;99.90;;;;;;5053369;28;20033;-59
2022/03/03 04:38:25;;;;;;;39.15;25.40;;;0.90;99.90;;;;;;5035342;28;20041;-59
2022/03/03 04:40:51;;;;;;;36.95;26.00;;;0.90;99.90;;;;;;5053372;28;20044;-59
2022/03/03 04:43:16;;;;;;;36.50;25.73;;;0.90;99.90;;;;;;5052492;28;20513;-58
2022/03/03 04:45:43;;;;;;;37.90;25.85;;;0.90;99.90;;;;;;5036623;28;20037;-58
2022/03/03 04:48:09;;;;;;;35.55;25.30;;;0.80;99.90;;;;;;5036461;28;20117;-58
2022/03/03 04:50:35;;;;;;;34.22;24.63;;;0.90;99.90;;;;;;5036924;28;20113;-58
2022/03/03 04:53:01;;;;;;;36.38;26.35;;;0.90;99.90;;;;;;5036959;28;20103;-59
2022/03/03 04:55:27;;;;;;;37.00;24.70;;;0.90;99.90;;;;;;5054276;28;20056;-58
2022/03/03 04:57:53;;;;;;;34.17;24.40;;;0.90;99.90;;;;;;5056430;28;20040;-58
2022/03/03 05:00:18;;;;;;;33.85;24.58;;;0.90;99.90;;;;;;5056596;28;20048;-60
2022/03/03 05:02:44;;;;;;;31.60;23.15;;;1.00;99.90;;;;;;5056530;28;20033;-59
2022/03/03 05:05:10;;;;;;;30.85;22.33;;;1.00;99.90;;;;;;5040264;28;20394;-58
2022/03/03 05:07:35;;;;;;;34.60;23.30;;;1.00;99.90;;;;;;5036182;28;20435;-58
2022/03/03 05:10:02;;;;;;;34.28;23.60;;;1.00;99.90;;;;;;5036640;28;20049;-58
2022/03/03 05:12:28;;;;;;;35.45;24.52;;;1.00;99.90;;;;;;5036514;28;20116;-58
2022/03/03 05:14:54;;;;;;;33.85;24.40;;;0.90;99.90;;;;;;5031835;28;20049;-58
2022/03/03 05:17:19;;;;;;;35.47;23.33;;;0.90;99.90;;;;;;5055924;28;20045;-58
2022/03/03 05:19:45;;;;;;;32.42;22.15;;;0.90;99.90;;;;;;5055790;28;20146;-58
2022/03/03 05:22:11;;;;;;;32.22;23.27;;;1.00;99.90;;;;;;5021999;28;20045;-58
2022/03/03 05:24:38;;;;;;;31.48;22.05;;;1.00;99.90;;;;;;5044805;28;20037;-58
2022/03/03 05:27:04;;;;;;;33.33;23.60;;;1.00;99.90;;;;;;5036015;28;20451;-58
2022/03/03 05:29:30;;;;;;;33.35;23.33;;;1.10;99.90;;;;;;5035506;28;20379;-59
2022/03/03 05:31:59;;;;;;;30.35;22.67;;;1.00;99.90;;;;;;5018232;28;20038;-58
2022/03/03 05:34:27;;;;;;;34.25;23.70;;;1.00;99.90;;;;;;5017948;28;20041;-59
2022/03/03 05:36:54;;;;;;;33.90;23.48;;;0.90;99.90;;;;;;5016461;28;20062;-59
2022/03/03 05:39:21;;;;;;;34.08;23.67;;;1.00;99.90;;;;;;4997709;28;20045;-58
2022/03/03 05:41:47;;;;;;;33.30;23.92;;;0.80;99.90;;;;;;4999732;28;20050;-58
2022/03/03 05:44:13;;;;;;;32.13;23.50;;;0.80;99.90;;;;;;5028756;28;20500;-57
2022/03/03 05:46:42;;;;;;;32.95;24.05;;;0.70;99.90;;;;;;5035186;28;20066;-57
2022/03/03 05:49:08;;;;;;;30.73;23.08;;;0.70;99.90;;;;;;5034722;28;20042;-59
2022/03/03 05:51:35;;;;;;;34.30;22.65;;;0.70;99.90;;;;;;5001127;28;20477;-58
2022/03/03 05:54:01;;;;;;;32.45;23.25;;;0.70;99.90;;;;;;5017346;28;20111;-58
2022/03/03 05:56:32;;;;;;;30.40;23.42;;;0.70;99.90;;;;;;5027074;28;20060;-58
2022/03/03 05:59:06;;;;;;;32.38;24.00;;;0.70;99.90;;;;;;5034300;28;20406;-59
2022/03/03 06:01:34;;;;;;;31.83;22.88;;;0.70;99.90;;;;;;5033157;28;20069;-57
2022/03/03 06:04:01;;;;;;;31.45;23.20;;;0.70;99.90;;;;;;5021808;28;20041;-58
2022/03/03 06:06:35;;;;;;;32.53;23.58;;;0.70;99.90;;;;;;5014762;28;20034;-58
2022/03/03 06:09:15;;;;;;;31.27;23.55;;;0.70;99.90;;;;;;5022625;28;20045;-58
2022/03/03 06:12:02;;;;;;;33.30;23.70;;;0.70;99.90;;;;;;5006380;28;20481;-57
2022/03/03 06:14:37;;;;;;;33.00;22.98;;;0.70;99.90;;;;;;5007680;28;20203;-57
2022/03/03 06:17:03;;;;;;;;;;;0.70;99.90;;;;;;5017254;28;20040;-57
2022/03/03 06:19:30;;;;;;;32.10;23.95;;;0.70;99.90;;;;;;5034374;28;20342;-58
2022/03/03 06:21:55;;;;;;;32.38;21.98;;;0.70;99.90;;;;;;5026020;28;20057;-58
2022/03/03 06:24:21;;;;;;;31.35;22.73;;;0.70;99.90;;;;;;5018733;28;20062;-58
2022/03/03 06:26:50;;;;;;;31.55;23.65;;;0.70;99.90;;;;;;5031344;28;20128;-59
2022/03/03 06:29:15;;;;;;;33.10;23.75;;;0.70;99.90;;;;;;5013938;28;20073;-58
2022/03/03 06:31:41;;;;;;;30.42;22.83;;;0.60;99.90;;;;;;5014566;28;20154;-59
2022/03/03 06:34:07;;;;;;;31.83;23.50;;;0.70;99.90;;;;;;5021683;28;20051;-59
2022/03/03 06:36:33;;;;;;;30.77;22.52;;;0.70;99.90;;;;;;5054757;28;20397;-58
2022/03/03 06:38:59;;;;;;;31.67;22.80;;;0.70;99.90;;;;;;5054414;28;20036;-59
2022/03/03 06:41:25;;;;;;;31.13;22.70;;;0.70;99.90;;;;;;5054716;28;20045;-59
2022/03/03 06:43:52;;;;;;;32.55;23.30;;;0.80;99.90;;;;;;5050366;28;20038;-58
2022/03/03 06:46:18;;;;;;;33.25;23.05;;;0.70;99.90;;;;;;5034650;28;20037;-58
2022/03/03 06:48:45;;;;;;;32.28;24.00;;;0.80;99.90;;;;;;5033947;28;20484;-59
2022/03/03 06:51:15;;;;;;;31.35;23.33;;;0.80;99.90;;;;;;5034338;28;20037;-59
2022/03/03 06:53:45;;;;;;;32.13;22.85;;;0.90;99.90;;;;;;5036714;28;20119;-60
2022/03/03 06:56:15;;;;;;;31.38;23.05;;;1.00;99.90;;;;;;5054392;28;20051;-58
2022/03/03 06:58:41;;;;;;;32.15;22.08;;;1.00;99.90;;;;;;5054040;28;20037;-58
2022/03/03 07:01:12;;;;;;;30.00;21.92;;;1.10;99.90;;;;;;5054161;28;20045;-59
2022/03/03 07:03:41;;;;;;;31.23;21.35;;;1.10;99.90;;;;;;5052102;28;20111;-58
2022/03/03 07:06:06;;;;;;;32.70;23.08;;;1.20;99.90;;;;;;5033455;28;20386;-59
2022/03/03 07:08:33;;;;;;;31.88;21.67;;;1.20;99.90;;;;;;5033823;28;20033;-61
2022/03/03 07:10:59;;;;;;;31.05;21.70;;;1.20;99.90;;;;;;5016605;28;20053;-58
2022/03/03 07:13:25;;;;;;;30.70;22.45;;;1.30;99.90;;;;;;5034371;28;20052;-58
2022/03/03 07:15:55;;;;;;;31.98;22.85;;;1.40;99.90;;;;;;5053490;28;20041;-58
2022/03/03 07:18:38;;;;;;;30.40;22.65;;;1.40;99.90;;;;;;5053576;28;20374;-59
2022/03/03 07:21:22;;;;;;;29.55;22.42;;;1.50;99.90;;;;;;5054057;28;20048;-59
2022/03/03 07:24:03;;;;;;;30.50;22.40;;;1.60;99.90;;;;;;5050560;28;20037;-59
2022/03/03 07:26:31;;;;;;;28.30;20.90;;;1.70;99.90;;;;;;5034239;28;20045;-59
2022/03/03 07:29:01;;;;;;;30.17;21.48;;;1.80;99.90;;;;;;5033712;28;20041;-59
2022/03/03 07:31:31;;;;;;;29.25;21.70;;;1.90;99.90;;;;;;5033688;28;20053;-60
2022/03/03 07:34:00;;;;;;;28.45;21.40;;;2.00;99.90;;;;;;5037932;28;20044;-59
2022/03/03 07:36:31;;;;;;;28.02;20.65;;;2.10;99.90;;;;;;5053620;28;20049;-59
2022/03/03 07:38:59;;;;;;;27.20;20.75;;;2.10;99.90;;;;;;5053480;28;20060;-59
2022/03/03 07:41:27;;;;;;;25.42;20.52;;;2.20;99.90;;;;;;5035965;28;20448;-60
2022/03/03 07:43:54;;;;;;;30.83;21.40;;;2.30;99.90;;;;;;5049573;28;20025;-59
2022/03/03 07:46:21;;;;;;;26.33;19.83;;;2.40;99.90;;;;;;5033606;28;20033;-59
2022/03/03 07:48:51;;;;;;;29.27;20.52;;;2.40;99.90;;;;;;5015812;28;20509;-59
2022/03/03 07:51:18;;;;;;;27.13;20.27;;;2.50;99.90;;;;;;5033896;28;20045;-59
2022/03/03 07:53:44;;;;;;;24.52;19.55;;;2.60;99.90;;;;;;5018729;28;20056;-59
2022/03/03 07:56:15;;;;;;;26.75;20.27;;;2.70;99.90;;;;;;5053688;28;20048;-59
2022/03/03 07:58:45;;;;;;;24.98;19.88;;;2.70;99.90;;;;;;5035669;28;20098;-59
2022/03/03 08:01:17;;;;;;;27.13;20.55;;;2.70;99.90;;;;;;5053471;28;20038;-59
2022/03/03 08:03:45;;;;;;;26.65;19.80;;;2.80;99.90;;;;;;5051263;28;20045;-60
2022/03/03 08:06:13;;;;;;;25.42;20.23;;;2.90;99.90;;;;;;5033377;28;20053;-59
2022/03/03 08:08:41;;;;;;;26.42;19.27;;;3.00;99.90;;;;;;5033231;28;20037;-61
2022/03/03 08:11:09;;;;;;;26.20;20.38;;;3.00;99.90;;;;;;5016545;28;20053;-59
2022/03/03 08:13:35;;;;;;;27.17;20.13;;;3.10;99.90;;;;;;5034119;28;20466;-59
2022/03/03 08:16:01;;;;;;;27.13;19.77;;;3.10;99.90;;;;;;5035997;28;20124;-60
2022/03/03 08:18:29;;;;;;;25.38;19.15;;;3.20;99.90;;;;;;5054663;28;20580;-58
2022/03/03 08:20:56;;;;;;;26.48;19.75;;;3.30;99.90;;;;;;5056975;28;20544;-59
2022/03/03 08:23:25;;;;;;;24.50;19.67;;;3.40;99.90;;;;;;5057280;28;20052;-59
2022/03/03 08:25:53;;;;;;;25.35;18.77;;;3.50;99.90;;;;;;5037686;28;20041;-58
2022/03/03 08:28:22;;;;;;;26.40;19.73;;;3.60;99.90;;;;;;5037035;28;20059;-58
2022/03/03 08:30:51;;;;;;;25.75;19.40;;;3.70;99.90;;;;;;5037115;28;20120;-58
2022/03/03 08:33:42;;;;;;;23.48;18.48;;;3.80;99.90;;;;;;5036868;28;20386;-58
2022/03/03 08:36:34;;;;;;;26.10;18.50;;;4.00;99.90;;;;;;5017096;28;20165;-58
2022/03/03 08:39:06;;;;;;;25.58;18.83;;;4.10;99.90;;;;;;5009040;28;20149;-58
2022/03/03 08:41:35;;;;;;;24.05;17.70;;;4.20;99.90;;;;;;5017371;28;20045;-58
2022/03/03 08:44:02;;;;;;;23.58;17.88;;;4.20;99.90;;;;;;5026012;28;20453;-58
2022/03/03 08:46:32;;;;;;;24.80;18.10;;;4.40;99.90;;;;;;5056783;28;20099;-58
2022/03/03 08:49:00;;;;;;;24.48;17.00;;;4.50;99.90;;;;;;5056490;28;20041;-58
2022/03/03 08:51:27;;;;;;;23.20;17.13;;;4.50;99.90;;;;;;5056839;28;20080;-59
2022/03/03 08:53:53;;;;;;;24.88;17.58;;;4.60;99.90;;;;;;5053001;28;20072;-58
2022/03/03 08:56:19;;;;;;;23.67;17.00;;;4.80;99.90;;;;;;5036849;28;20076;-58
2022/03/03 08:58:45;;;;;;;23.05;16.88;;;4.90;99.90;;;;;;5036102;28;20124;-58
2022/03/03 09:01:10;;;;;;;25.08;17.45;;;5.00;99.90;;;;;;5036508;28;20045;-58
2022/03/03 09:03:38;;;;;;;25.52;16.63;;;5.10;99.90;;;;;;5036828;28;20044;-58
2022/03/03 09:06:04;;;;;;;23.42;16.75;;;5.20;99.90;;;;;;5056178;28;20051;-58
2022/03/03 09:08:29;;;;;;;24.48;17.27;;;5.30;99.90;;;;;;5056137;28;20041;-58
2022/03/03 09:10:55;;;;;;;22.83;16.95;;;5.30;99.90;;;;;;5038577;28;20044;-58
2022/03/03 09:13:21;;;;;;;23.33;17.00;;;5.50;99.90;;;;;;5056317;28;20041;-58
2022/03/03 09:15:46;;;;;;;24.67;17.30;;;5.50;99.90;;;;;;5037415;28;20124;-58
2022/03/03 09:18:12;;;;;;;26.55;17.63;;;5.60;99.90;;;;;;5035859;28;20073;-58
2022/03/03 09:20:37;;;;;;;26.27;17.58;;;5.60;99.90;;;;;;5036149;28;20120;-58
2022/03/03 09:23:03;;;;;;;22.95;16.45;;;5.70;99.90;;;;;;5036395;28;20478;-58
2022/03/03 09:25:29;;;;;;;22.30;16.10;;;5.80;99.90;;;;;;5052143;28;20036;-58
2022/03/03 09:27:55;;;;;;;24.08;16.60;;;5.90;99.90;;;;;;5055678;28;20420;-59
2022/03/03 09:30:21;;;;;;;23.88;17.48;;;5.90;99.90;;;;;;5055256;28;20036;-58
2022/03/03 09:32:48;;;;;;;22.08;16.90;;;6.10;99.90;;;;;;5055944;28;20377;-60
2022/03/03 09:35:14;;;;;;;23.35;16.85;;;6.10;99.90;;;;;;5041573;28;20037;-58
2022/03/03 09:37:40;;;;;;;20.77;15.20;;;6.30;99.90;;;;;;5035382;28;20417;-58
2022/03/03 09:40:07;;;;;;;21.50;15.57;;;6.50;99.90;;;;;;5018038;28;20524;-59
2022/03/03 09:42:34;;;;;;;22.27;15.68;;;6.50;99.90;;;;;;5035690;28;20438;-58
2022/03/03 09:45:10;;;;;;;23.27;15.95;;;6.70;99.90;;;;;;5047552;28;20041;-58
2022/03/03 09:47:38;;;;;;;20.95;14.80;;;6.80;99.90;;;;;;5043404;28;20041;-58
2022/03/03 09:50:05;;;;;;;20.23;15.45;;;6.90;99.90;;;;;;5035050;28;20034;-58
2022/03/03 09:52:31;;;;;;;20.48;14.80;;;6.90;99.90;;;;;;5034916;28;20397;-59
2022/03/03 09:54:57;;;;;;;21.92;15.13;;;7.00;99.90;;;;;;5037514;28;20052;-60
2022/03/03 09:57:24;;;;;;;20.20;14.40;;;6.90;99.90;;;;;;5034780;28;20041;-59
2022/03/03 09:59:52;;;;;;;21.60;14.40;;;7.00;99.90;;;;;;5028628;28;20041;-58
2022/03/03 10:02:18;;;;;;;22.67;15.35;;;7.10;99.90;;;;;;5014681;28;21388;-59
2022/03/03 10:04:44;;;;;;;22.30;15.63;;;7.20;99.90;;;;;;5017757;28;20053;-58
2022/03/03 10:07:10;;;;;;;20.65;15.35;;;7.30;99.90;;;;;;5014707;28;20038;-59
2022/03/03 10:12:22;;;;;;;23.42;15.82;;;7.40;99.90;;;;;;5034755;28;20064;-60
2022/03/03 10:14:49;;;;;;;18.98;15.02;;;7.40;99.90;;;;;;5035119;28;20041;-60
2022/03/03 10:17:16;;;;;;;19.90;15.35;;;7.40;99.90;;;;;;5034773;28;20046;-58
2022/03/03 10:19:52;;;;;;;20.15;14.73;;;7.40;99.90;;;;;;5035104;28;20084;-59
2022/03/03 10:22:22;;;;;;;21.05;14.57;;;7.40;99.90;;;;;;5035086;28;20517;-60
2022/03/03 10:24:50;;;;;;;20.35;14.93;;;7.50;99.90;;;;;;5045131;28;20045;-61
2022/03/03 10:27:19;;;;;;;18.50;13.85;;;7.60;99.90;;;;;;5054570;28;20064;-59
2022/03/03 10:29:48;;;;;;;19.95;14.50;;;7.70;99.90;;;;;;5054593;28;20032;-59
2022/03/03 10:32:23;;;;;;;21.13;14.82;;;7.80;99.90;;;;;;5054728;28;20362;-59
2022/03/03 10:34:49;;;;;;;20.23;14.30;;;8.00;99.90;;;;;;5026854;28;20041;-60
2022/03/03 10:37:22;;;;;;;19.25;13.85;;;8.30;99.90;;;;;;5034143;28;20112;-59
2022/03/03 10:39:59;;;;;;;18.25;13.45;;;8.50;99.90;;;;;;5016849;28;20045;-60
2022/03/03 10:42:26;;;;;;;19.92;13.38;;;8.50;99.90;;;;;;5034645;28;20175;-58
2022/03/03 10:45:05;;;;;;;20.60;13.32;;;8.50;99.90;;;;;;5044647;28;20120;-60
2022/03/03 10:47:31;;;;;;;20.52;14.43;;;8.50;99.90;;;;;;5054236;28;20033;-59
2022/03/03 10:49:59;;;;;;;20.83;14.15;;;8.50;99.90;;;;;;5054216;28;20215;-59
2022/03/03 10:52:29;;;;;;;17.58;13.38;;;8.60;99.80;;;;;;5053995;28;20049;-59
2022/03/03 10:55:00;;;;;;;18.98;13.38;;;8.80;99.50;;;;;;5043472;28;20116;-59
2022/03/03 10:57:52;;;;;;;19.20;13.68;;;8.80;99.60;;;;;;5033935;28;20073;-59
2022/03/03 11:00:26;;;;;;;20.42;14.30;;;8.90;99.90;;;;;;5034325;28;20059;-59
2022/03/03 11:02:55;;;;;;;17.58;12.90;;;8.90;99.90;;;;;;5034323;28;20038;-60
2022/03/03 11:05:23;;;;;;;18.77;13.07;;;9.00;99.70;;;;;;5047958;28;20084;-59
2022/03/03 11:07:50;;;;;;;20.13;13.50;;;9.10;99.80;;;;;;5053724;28;20037;-59
2022/03/03 11:10:18;;;;;;;17.10;12.70;;;9.20;99.60;;;;;;5054177;28;20049;-59
2022/03/03 11:12:44;;;;;;;16.77;12.52;;;9.20;98.00;;;;;;5054139;28;20045;-59
2022/03/03 11:15:12;;;;;;;17.52;12.40;;;9.30;97.40;;;;;;5041191;28;20067;-60
2022/03/03 11:17:38;;;;;;;19.02;12.90;;;9.30;97.40;;;;;;5033752;28;20045;-59
2022/03/03 11:20:06;;;;;;;19.58;13.38;;;9.40;96.90;;;;;;5034257;28;20061;-59
2022/03/03 11:22:32;;;;;;;17.77;13.02;;;9.20;96.10;;;;;;5034221;28;20122;-59
2022/03/03 11:25:02;;;;;;;16.67;11.88;;;9.40;96.20;;;;;;5044761;28;20037;-59
2022/03/03 11:27:39;;;;;;;17.95;13.38;;;9.50;96.40;;;;;;5035680;28;20408;-59
2022/03/03 11:30:30;;;;;;;18.02;12.20;;;9.50;96.80;;;;;;5053990;28;20044;-59
2022/03/03 11:33:18;;;;;;;19.27;13.43;;;9.60;96.30;;;;;;5053789;28;20072;-59
2022/03/03 11:35:54;;;;;;;17.20;12.00;;;9.60;95.30;;;;;;5019133;28;20348;-59
2022/03/03 11:38:22;;;;;;;16.55;11.48;;;9.70;95.30;;;;;;5033546;28;20055;-59
2022/03/03 11:40:52;;;;;;;15.35;11.65;;;9.70;95.70;;;;;;5016405;28;20053;-59
2022/03/03 11:43:17;;;;;;;15.07;11.85;;;9.80;95.20;;;;;;5033885;28;20102;-59
2022/03/03 11:45:51;;;;;;;17.02;11.75;;;9.80;95.00;;;;;;5050202;28;20115;-59
2022/03/03 11:48:22;;;;;;;15.55;11.95;;;9.90;95.00;;;;;;5053413;28;20068;-59
2022/03/03 11:50:52;;;;;;;17.38;12.27;;;10.00;95.00;;;;;;5053818;28;20049;-60
2022/03/03 11:53:21;;;;;;;15.30;11.90;;;9.90;94.20;;;;;;5055539;28;20134;-60
2022/03/03 11:56:05;;;;;;;15.85;12.13;;;9.90;94.30;;;;;;5040278;28;20049;-60
2022/03/03 11:58:41;;;;;;;14.93;11.77;;;9.90;94.40;;;;;;5020009;28;20477;-59
2022/03/03 12:01:11;;;;;;;16.98;11.73;;;9.90;93.10;;;;;;5037641;28;20120;-61
2022/03/03 12:04:13;;;;;;;17.00;12.20;;;10.00;93.80;;;;;;5037473;28;20348;-59
2022/03/03 12:06:43;;;;;;;16.35;12.70;;;10.00;94.00;;;;;;5007409;28;20120;-59
2022/03/03 12:09:18;;;;;;;19.88;13.40;;;10.10;94.20;;;;;;5017967;28;20125;-59
2022/03/03 12:11:44;;;;;;;16.42;12.40;;;10.20;94.20;;;;;;5017881;28;20051;-59
2022/03/03 12:14:29;;;;;;;16.70;12.52;;;10.20;94.00;;;;;;5025896;28;20049;-59
2022/03/03 12:17:33;;;;;;;17.08;12.77;;;10.20;94.60;;;;;;5056871;28;20353;-59
2022/03/03 12:20:23;;;;;;;15.90;12.18;;;10.20;93.80;;;;;;5057057;28;20052;-59
2022/03/03 12:23:07;;;;;;;16.90;12.13;;;10.10;94.10;;;;;;5057387;28;20366;-59
2022/03/03 12:25:51;;;;;;;21.08;12.95;;;10.20;94.10;;;;;;5042015;28;20103;-60
2022/03/03 12:28:21;;;;;;;17.13;12.60;;;10.30;94.00;;;;;;5037066;28;20060;-59
2022/03/03 12:30:49;;;;;;;17.95;12.38;;;10.30;94.30;;;;;;5037182;28;20359;-61
2022/03/03 12:33:29;;;;;;;15.05;11.45;;;10.20;93.50;;;;;;5037225;28;20042;-59
2022/03/03 12:35:59;;;;;;;17.30;11.10;;;10.20;92.60;;;;;;5055204;28;20389;-59
2022/03/03 12:38:26;;;;;;;17.80;12.20;;;10.20;92.70;;;;;;5056422;28;20382;-59
2022/03/03 12:40:52;;;;;;;17.08;12.65;;;10.20;92.80;;;;;;5056644;28;20063;-60
2022/03/03 12:43:19;;;;;;;16.38;11.52;;;10.20;92.70;;;;;;5056755;28;20036;-59